首页
METAR-TAF:

METAR-TAF

机场 :

巴克烏, 罗马尼亚

纬度: 46-35N, 经度: 026-58E, 海拔: 184米

当前天气观测

该预报发布于29分钟前的21:30 UTC
风速5节,风向
温度 0°C
湿度 74%
气压 1020 hPa
能见度10公里或以上
1500米以下无云,无积雨云

METAR: LRBC 262130Z 19005KT CAVOK M00/M04 Q1020

时间: 23:59 (21:59 UTC)

预报

该预报发布于1小时和59分钟前的20:00 UTC
预报有效从26日的 21点(UTC)到 27日的 06点(UTC)
风速8节,风向
能见度10公里或以上
1500米以下无云,无积雨云
成为
从 26日的 22点(UTC)到 26日的 24点(UTC)
能見度: 5000
轻雾
成为
从 27日的 00点(UTC)到 27日的 02点(UTC)
能見度: 1500
多云层高于500英尺
轻雾
几率 30% :
短暂存在
从 27日的 02点(UTC)到 27日的 05点(UTC)
能見度: 0350
阴天层高于200英尺
冻雾

TAF: LRBC 262000Z 2621/2706 17008KT CAVOK BECMG 2622/2624 5000 BR BECMG 2700/2702 1500 BR BKN005 PROB30 TEMPO 2702/2705 0350 FZFG OVC002

超过4000个机场的气象观测和天气预报(METAR&TAF报告)。

可查询的气象台以黄色和红色小点在地图上表示。

将鼠标移到小点上方,可查看气象台名称。

然后点击查看天气观测和预报。

如需切换地图:点击带黑十字的绿色按钮放大地图;点击带横线的绿色按钮缩小地图;或者点击绿色箭头查看邻近地区的地图。


METAR-TAF: